Time;durP1;ratioP1;P1;durP2;ratioP2;P2;SDS_P1;SDS_P2;PMS_P1;PMS_P2;Temp;Humidity;BMP_temperature;BMP_pressure;BME280_temperature;BME280_humidity;BME280_pressure;Samples;Min_cycle;Max_cycle;Signal;HPM_P1;HPM_P2
2023/06/19 00:00:39;;;;;;;6.40;5.70;;;18.10;63.20;;;;;;2092244;28;20302;-65
2023/06/19 00:01:40;;;;;;;6.43;5.30;;;18.20;64.00;;;;;;2093807;28;20258;-66
2023/06/19 00:02:41;;;;;;;6.63;5.93;;;18.10;64.10;;;;;;2097589;28;21001;-66
2023/06/19 00:03:43;;;;;;;6.53;5.50;;;18.20;64.20;;;;;;2096526;28;20216;-66
2023/06/19 00:04:43;;;;;;;6.07;5.17;;;18.20;64.30;;;;;;2092977;28;20460;-66
2023/06/19 00:05:44;;;;;;;6.30;5.30;;;18.20;64.10;;;;;;2096614;28;20233;-66
2023/06/19 00:06:45;;;;;;;5.80;5.20;;;18.20;64.00;;;;;;2095463;28;20223;-65
2023/06/19 00:07:46;;;;;;;6.27;5.67;;;18.20;63.80;;;;;;2096905;28;21103;-65
2023/06/19 00:08:47;;;;;;;6.53;5.10;;;18.20;63.60;;;;;;2096839;28;20723;-66
2023/06/19 00:09:48;;;;;;;5.97;5.37;;;18.20;63.40;;;;;;2093813;28;20223;-66
2023/06/19 00:10:48;;;;;;;5.70;5.20;;;18.20;64.00;;;;;;2093750;28;20559;-66
2023/06/19 00:11:49;;;;;;;5.87;5.30;;;18.20;63.50;;;;;;2094933;28;20276;-66
2023/06/19 00:12:50;;;;;;;5.77;5.23;;;18.20;62.90;;;;;;2087966;28;20220;-66
2023/06/19 00:13:50;;;;;;;6.50;5.80;;;18.20;62.80;;;;;;2075377;28;20296;-66
2023/06/19 00:14:51;;;;;;;5.80;5.20;;;18.10;63.10;;;;;;2096049;28;20227;-66
2023/06/19 00:15:52;;;;;;;7.97;5.27;;;18.10;62.90;;;;;;2093770;28;20234;-66
2023/06/19 00:16:53;;;;;;;7.03;5.40;;;18.10;62.30;;;;;;2094848;28;20219;-66
2023/06/19 00:17:54;;;;;;;7.47;4.97;;;18.20;62.20;;;;;;2096646;28;20222;-65
2023/06/19 00:18:57;;;;;;;5.87;5.17;;;18.10;62.60;;;;;;2088536;28;20251;-65
2023/06/19 00:19:58;;;;;;;6.07;5.47;;;18.10;62.30;;;;;;2087424;28;20224;-66
2023/06/19 00:20:58;;;;;;;6.13;5.10;;;18.10;61.80;;;;;;2097151;28;20948;-66
2023/06/19 00:22:00;;;;;;;5.67;5.07;;;18.10;61.50;;;;;;2086373;28;20188;-66
2023/06/19 00:23:00;;;;;;;5.60;5.10;;;18.10;61.50;;;;;;2084017;28;20261;-66
2023/06/19 00:24:03;;;;;;;5.33;4.80;;;18.20;62.00;;;;;;2087960;28;20433;-66
2023/06/19 00:25:04;;;;;;;6.93;5.43;;;18.10;62.30;;;;;;2088763;28;20238;-65
2023/06/19 00:26:06;;;;;;;6.30;5.27;;;18.10;62.20;;;;;;2088409;28;20432;-66
2023/06/19 00:27:07;;;;;;;6.80;5.57;;;18.10;62.40;;;;;;2085723;28;21185;-65
2023/06/19 00:28:11;;;;;;;6.47;5.43;;;18.10;63.50;;;;;;2096352;28;20467;-66
2023/06/19 00:29:12;;;;;;;6.07;5.47;;;18.10;62.80;;;;;;2089683;28;20207;-65
2023/06/19 00:30:13;;;;;;;5.80;5.20;;;17.90;64.30;;;;;;2097276;28;20507;-65
2023/06/19 00:31:14;;;;;;;6.20;5.37;;;17.80;65.40;;;;;;2103413;28;20423;-65
2023/06/19 00:32:15;;;;;;;6.37;5.20;;;17.60;66.00;;;;;;2095134;28;20559;-66
2023/06/19 00:33:17;;;;;;;9.77;5.33;;;17.50;66.50;;;;;;2097285;28;20429;-66
2023/06/19 00:34:18;;;;;;;4.37;3.97;;;17.60;67.80;;;;;;2098129;28;20373;-65
2023/06/19 00:35:19;;;;;;;5.90;5.00;;;17.80;67.20;;;;;;2096806;28;20480;-65
2023/06/19 00:36:21;;;;;;;8.40;4.47;;;18.10;66.50;;;;;;2093672;28;20227;-65
2023/06/19 00:37:21;;;;;;;4.57;4.17;;;18.40;65.10;;;;;;2093606;28;20863;-66
2023/06/19 00:38:23;;;;;;;5.27;4.30;;;18.70;65.10;;;;;;2095185;28;20479;-65
2023/06/19 00:39:25;;;;;;;6.50;4.40;;;18.80;63.10;;;;;;2086896;28;20228;-67
2023/06/19 00:40:31;;;;;;;5.23;4.73;;;18.90;63.10;;;;;;2098967;28;20544;-66
2023/06/19 00:41:34;;;;;;;4.60;4.07;;;19.00;63.00;;;;;;2105668;28;20467;-66
2023/06/19 00:42:36;;;;;;;4.70;3.67;;;19.00;63.10;;;;;;2097255;28;20474;-66
2023/06/19 00:43:37;;;;;;;5.70;4.10;;;19.00;63.80;;;;;;2105123;28;20452;-66
2023/06/19 00:44:39;;;;;;;5.10;3.60;;;18.90;64.40;;;;;;2102441;28;20499;-66
2023/06/19 00:45:39;;;;;;;5.47;3.70;;;18.90;64.70;;;;;;2102189;28;21113;-66
2023/06/19 00:46:41;;;;;;;4.37;3.80;;;18.90;64.90;;;;;;2101532;28;20475;-67
2023/06/19 00:47:42;;;;;;;7.40;3.57;;;18.90;66.30;;;;;;2096600;28;20242;-67
2023/06/19 00:48:43;;;;;;;3.87;3.53;;;18.90;65.20;;;;;;2103534;28;21066;-67
2023/06/19 00:49:43;;;;;;;3.60;3.30;;;18.80;65.40;;;;;;2105048;28;20219;-66
2023/06/19 00:50:44;;;;;;;5.67;3.60;;;18.80;65.50;;;;;;2105281;28;20981;-66
2023/06/19 00:51:45;;;;;;;4.37;3.50;;;18.80;65.90;;;;;;2105364;28;20257;-68
2023/06/19 00:52:46;;;;;;;15.27;3.70;;;18.80;66.20;;;;;;2105028;28;20214;-66
2023/06/19 00:53:47;;;;;;;4.17;3.47;;;18.70;66.80;;;;;;2105298;28;20589;-67
2023/06/19 00:54:47;;;;;;;5.57;3.70;;;18.60;66.90;;;;;;2101638;28;20300;-66
2023/06/19 00:55:51;;;;;;;3.47;3.17;;;18.60;67.30;;;;;;2096234;28;20537;-66
2023/06/19 00:56:53;;;;;;;3.90;2.93;;;18.60;67.50;;;;;;2094983;28;20211;-66
2023/06/19 00:57:54;;;;;;;3.40;3.10;;;18.50;67.90;;;;;;2096795;28;20565;-67
2023/06/19 00:58:55;;;;;;;4.30;3.07;;;18.50;68.20;;;;;;2104494;28;20527;-66
2023/06/19 00:59:57;;;;;;;3.97;3.00;;;18.40;68.50;;;;;;2095414;28;20219;-67
2023/06/19 01:00:58;;;;;;;3.63;2.80;;;18.40;68.80;;;;;;2085867;28;20808;-67
2023/06/19 01:02:00;;;;;;;3.20;2.90;;;18.40;69.10;;;;;;2099310;28;20460;-66
2023/06/19 01:03:01;;;;;;;4.07;2.63;;;18.30;69.70;;;;;;2103670;28;20655;-67
2023/06/19 01:04:02;;;;;;;3.00;2.70;;;18.20;70.10;;;;;;2096197;28;20600;-67
2023/06/19 01:05:03;;;;;;;3.30;2.90;;;18.20;70.30;;;;;;2105375;28;20211;-67
2023/06/19 01:06:20;;;;;;;3.30;3.00;;;18.20;70.30;;;;;;2115333;27;20202;-66
2023/06/19 01:07:46;;;;;;;3.90;2.73;;;18.20;70.40;;;;;;2103803;28;20981;-67
2023/06/19 01:09:02;;;;;;;4.53;2.90;;;18.10;71.10;;;;;;2083680;28;20479;-67
2023/06/19 01:10:09;;;;;;;3.60;2.60;;;18.00;71.90;;;;;;2097825;28;20456;-67
2023/06/19 01:11:11;;;;;;;3.10;2.47;;;18.00;72.10;;;;;;2097251;28;20543;-67
2023/06/19 01:12:29;;;;;;;2.97;2.67;;;18.00;72.20;;;;;;2096023;28;20425;-67
2023/06/19 01:13:45;;;;;;;4.23;2.97;;;17.90;72.10;;;;;;2104709;28;21416;-67
2023/06/19 01:15:07;;;;;;;2.83;2.53;;;17.90;72.30;;;;;;2103827;28;20529;-67
2023/06/19 01:16:10;;;;;;;4.00;2.73;;;17.90;72.50;;;;;;2097699;28;20502;-68
2023/06/19 01:17:10;;;;;;;2.67;2.30;;;17.80;72.80;;;;;;2096455;28;20435;-67
2023/06/19 01:18:12;;;;;;;3.23;2.57;;;17.80;72.90;;;;;;2096373;28;20448;-66
2023/06/19 01:19:20;;;;;;;2.73;2.43;;;17.80;73.20;;;;;;2105221;28;20181;-67
2023/06/19 01:20:20;;;;;;;3.53;2.70;;;17.80;73.30;;;;;;2102467;28;20564;-67
2023/06/19 01:21:21;;;;;;;3.37;2.57;;;17.70;73.20;;;;;;2100260;28;20966;-67
2023/06/19 01:22:32;;;;;;;3.00;2.60;;;17.70;73.40;;;;;;2096203;28;20231;-67
2023/06/19 01:23:34;;;;;;;2.87;2.67;;;17.70;73.80;;;;;;2092982;28;20277;-66
2023/06/19 01:24:34;;;;;;;4.73;2.77;;;17.70;74.10;;;;;;2102460;28;20479;-66
2023/06/19 01:25:37;;;;;;;3.63;2.40;;;17.60;74.20;;;;;;2096181;28;20506;-66
2023/06/19 01:26:37;;;;;;;4.80;2.60;;;17.60;74.00;;;;;;2088336;28;20303;-67
2023/06/19 01:27:38;;;;;;;2.83;2.53;;;17.60;74.10;;;;;;2095131;28;20537;-67
2023/06/19 01:28:42;;;;;;;3.53;2.50;;;17.60;74.40;;;;;;2105159;28;20784;-66
2023/06/19 01:29:44;;;;;;;3.70;2.90;;;17.60;74.80;;;;;;2102702;28;20509;-66
2023/06/19 01:30:46;;;;;;;2.47;2.27;;;17.60;74.90;;;;;;2104496;28;21079;-67
2023/06/19 01:32:20;;;;;;;3.53;2.20;;;17.60;74.90;;;;;;2104820;28;20532;-67
2023/06/19 01:33:28;;;;;;;3.63;2.17;;;17.60;74.80;;;;;;2100568;28;20554;-66
2023/06/19 01:34:30;;;;;;;2.93;2.50;;;17.60;74.70;;;;;;2099965;28;20486;-66
2023/06/19 01:35:35;;;;;;;2.50;2.30;;;17.60;74.60;;;;;;2089170;28;20464;-67
2023/06/19 01:36:37;;;;;;;3.40;2.17;;;17.60;74.60;;;;;;2095907;28;20493;-66
2023/06/19 01:37:40;;;;;;;2.83;2.13;;;17.60;74.90;;;;;;2112937;28;21277;-66
2023/06/19 01:38:43;;;;;;;2.60;2.20;;;17.60;74.80;;;;;;2101827;28;20860;-67
2023/06/19 01:39:46;;;;;;;2.80;2.50;;;17.60;76.00;;;;;;2104204;28;20977;-66
2023/06/19 01:40:49;;;;;;;2.50;2.30;;;17.60;75.00;;;;;;2104660;28;20467;-66
2023/06/19 01:41:51;;;;;;;2.57;2.37;;;17.60;75.00;;;;;;2104343;28;20549;-66
2023/06/19 01:42:54;;;;;;;3.17;2.60;;;17.60;75.00;;;;;;2104703;28;20471;-66
2023/06/19 01:43:57;;;;;;;3.23;2.50;;;17.60;74.60;;;;;;2096590;28;20480;-66
2023/06/19 01:44:58;;;;;;;3.03;2.60;;;17.60;74.90;;;;;;2095632;28;20492;-68
2023/06/19 01:46:00;;;;;;;2.63;2.40;;;17.60;74.80;;;;;;2095797;28;20427;-67
2023/06/19 01:47:12;;;;;;;3.50;2.63;;;17.60;74.80;;;;;;2086435;28;20433;-67
2023/06/19 01:48:14;;;;;;;2.70;2.50;;;17.60;74.70;;;;;;2093615;28;20536;-67
2023/06/19 01:49:16;;;;;;;2.73;2.30;;;17.60;74.60;;;;;;2101435;28;20420;-67
2023/06/19 01:50:17;;;;;;;2.97;2.43;;;17.60;74.60;;;;;;2113072;28;20850;-67
2023/06/19 01:51:17;;;;;;;3.37;2.50;;;17.60;74.70;;;;;;2104191;28;20507;-67
2023/06/19 01:52:18;;;;;;;2.50;2.30;;;17.60;75.00;;;;;;2097170;28;20227;-66
2023/06/19 01:53:19;;;;;;;2.93;2.37;;;17.50;75.00;;;;;;2104819;28;20849;-66
2023/06/19 01:54:20;;;;;;;3.30;2.37;;;17.50;75.10;;;;;;2101357;28;20220;-66
2023/06/19 01:55:21;;;;;;;2.80;2.40;;;17.50;75.00;;;;;;2103910;28;20218;-66
2023/06/19 01:56:24;;;;;;;2.83;2.30;;;17.50;75.10;;;;;;2104838;28;20654;-67
2023/06/19 01:57:25;;;;;;;3.00;2.50;;;17.60;75.10;;;;;;2095772;28;20481;-66
2023/06/19 01:58:26;;;;;;;2.47;2.23;;;17.50;75.30;;;;;;2100213;28;20464;-66
2023/06/19 01:59:27;;;;;;;3.70;2.40;;;17.50;75.30;;;;;;2104185;28;20471;-66
2023/06/19 02:00:28;;;;;;;2.50;2.17;;;17.50;75.30;;;;;;2098787;28;20234;-67
2023/06/19 02:01:29;;;;;;;2.83;2.53;;;17.50;75.10;;;;;;2103661;28;20307;-66
2023/06/19 02:02:30;;;;;;;2.70;2.33;;;17.60;74.80;;;;;;2107075;28;20500;-67
2023/06/19 02:03:30;;;;;;;3.00;2.30;;;17.60;75.00;;;;;;2104492;28;20230;-67
2023/06/19 02:04:31;;;;;;;3.40;2.40;;;17.60;74.80;;;;;;2112736;28;20206;-67
2023/06/19 02:05:32;;;;;;;2.67;2.37;;;17.60;74.70;;;;;;2096768;28;20219;-67
2023/06/19 02:06:34;;;;;;;3.43;2.57;;;17.60;74.60;;;;;;2099950;28;20215;-66
2023/06/19 02:07:34;;;;;;;2.70;2.30;;;17.60;74.40;;;;;;2100509;28;20484;-66
2023/06/19 02:08:35;;;;;;;2.57;2.37;;;17.60;74.50;;;;;;2102428;28;21007;-66
2023/06/19 02:09:37;;;;;;;2.40;2.20;;;17.60;74.30;;;;;;2094377;28;20216;-67
2023/06/19 02:10:38;;;;;;;4.27;2.10;;;17.60;74.20;;;;;;2095929;28;20222;-66
2023/06/19 02:11:39;;;;;;;2.23;2.00;;;17.60;74.00;;;;;;2095877;28;20993;-67
2023/06/19 02:12:39;;;;;;;2.53;2.20;;;17.70;73.90;;;;;;2095619;28;20211;-66
2023/06/19 02:13:42;;;;;;;3.10;2.40;;;17.80;73.50;;;;;;2104898;28;20250;-67
2023/06/19 02:14:43;;;;;;;2.33;2.10;;;17.80;73.10;;;;;;2104501;28;20222;-67
2023/06/19 02:15:44;;;;;;;2.50;2.10;;;17.80;72.90;;;;;;2104209;28;20503;-66
2023/06/19 02:16:45;;;;;;;2.27;1.93;;;17.90;73.00;;;;;;2100653;28;20279;-67
2023/06/19 02:17:46;;;;;;;2.67;2.10;;;17.90;72.60;;;;;;2103780;28;20471;-67
2023/06/19 02:18:46;;;;;;;3.20;2.17;;;17.90;73.00;;;;;;2092442;28;20211;-66
2023/06/19 02:19:48;;;;;;;2.00;1.80;;;17.80;73.00;;;;;;2085052;28;20469;-67
2023/06/19 02:20:49;;;;;;;2.37;2.13;;;17.90;72.90;;;;;;2090442;28;20477;-66
2023/06/19 02:21:50;;;;;;;2.70;2.00;;;17.90;72.60;;;;;;2095532;28;20238;-67
2023/06/19 02:22:52;;;;;;;1.70;1.53;;;17.90;72.90;;;;;;2104214;28;20996;-67
2023/06/19 02:23:55;;;;;;;2.17;1.90;;;17.90;72.70;;;;;;2101220;28;20468;-67
2023/06/19 02:24:56;;;;;;;2.70;2.00;;;17.90;72.30;;;;;;2092956;28;20472;-67
2023/06/19 02:25:56;;;;;;;2.47;1.97;;;17.90;72.50;;;;;;2092573;28;20554;-67
2023/06/19 02:26:58;;;;;;;1.97;1.80;;;17.90;72.60;;;;;;2101385;28;20666;-67
2023/06/19 02:27:59;;;;;;;2.73;1.77;;;18.00;72.50;;;;;;2095824;28;20204;-67
2023/06/19 02:28:59;;;;;;;1.90;1.80;;;17.90;72.30;;;;;;2104663;28;20477;-67
2023/06/19 02:30:00;;;;;;;3.23;1.80;;;18.10;73.20;;;;;;2093294;28;20438;-67
2023/06/19 02:31:01;;;;;;;2.87;2.10;;;18.10;71.50;;;;;;2086847;28;20196;-66
2023/06/19 02:32:02;;;;;;;2.27;1.90;;;18.20;71.30;;;;;;2087060;28;20254;-67
2023/06/19 02:33:04;;;;;;;1.90;1.70;;;18.20;71.30;;;;;;2099618;28;20307;-67
2023/06/19 02:34:05;;;;;;;1.93;1.73;;;18.20;71.80;;;;;;2101203;28;21175;-67
2023/06/19 02:35:10;;;;;;;2.07;1.87;;;18.20;71.70;;;;;;2112356;28;20435;-67
2023/06/19 02:36:11;;;;;;;2.30;1.90;;;18.10;72.60;;;;;;2100228;28;20194;-67
2023/06/19 02:37:12;;;;;;;2.33;1.87;;;18.00;73.40;;;;;;2095807;28;20424;-66
2023/06/19 02:38:14;;;;;;;1.70;1.57;;;18.00;73.20;;;;;;2087993;28;20239;-67
2023/06/19 02:39:15;;;;;;;2.27;2.00;;;18.00;74.00;;;;;;2096935;28;20190;-66
2023/06/19 02:40:16;;;;;;;2.17;1.90;;;17.90;74.30;;;;;;2093198;28;20425;-67
2023/06/19 02:41:18;;;;;;;2.10;1.80;;;17.80;74.50;;;;;;2096008;28;20461;-67
2023/06/19 02:42:19;;;;;;;3.00;1.73;;;17.80;75.20;;;;;;2096378;28;20234;-67
2023/06/19 02:43:20;;;;;;;2.13;1.80;;;17.70;76.40;;;;;;2102207;28;21050;-66
2023/06/19 02:44:20;;;;;;;2.93;1.80;;;17.60;77.40;;;;;;2105866;28;20246;-67
2023/06/19 02:45:21;;;;;;;2.17;1.97;;;17.60;78.50;;;;;;2103676;28;20223;-66
2023/06/19 02:46:22;;;;;;;1.33;1.23;;;17.60;78.60;;;;;;2104046;28;20221;-67
2023/06/19 02:47:23;;;;;;;3.23;1.80;;;17.70;78.80;;;;;;2097393;28;20326;-67
2023/06/19 02:48:24;;;;;;;1.80;1.60;;;17.70;79.40;;;;;;2088324;28;20692;-67
2023/06/19 02:49:24;;;;;;;2.00;1.80;;;17.80;79.50;;;;;;2102952;28;20315;-66
2023/06/19 02:50:26;;;;;;;2.50;1.73;;;17.80;80.20;;;;;;2112676;28;20481;-67
2023/06/19 02:51:26;;;;;;;2.37;2.10;;;17.80;79.30;;;;;;2103551;28;20276;-66
2023/06/19 02:52:27;;;;;;;3.83;1.90;;;17.60;80.70;;;;;;2093307;28;20515;-67
2023/06/19 02:53:28;;;;;;;2.80;1.93;;;17.50;81.60;;;;;;2095459;28;20255;-67
2023/06/19 02:54:29;;;;;;;4.30;1.73;;;17.50;82.90;;;;;;2103461;28;20475;-67
2023/06/19 02:55:29;;;;;;;4.87;2.27;;;17.50;84.60;;;;;;2103483;28;21848;-67
2023/06/19 02:56:31;;;;;;;2.10;1.90;;;17.40;85.50;;;;;;2103845;28;20223;-67
2023/06/19 02:57:32;;;;;;;2.07;1.80;;;17.50;85.80;;;;;;2103801;28;20223;-67
2023/06/19 02:58:34;;;;;;;3.30;1.90;;;17.40;86.10;;;;;;2103818;28;20467;-67
2023/06/19 02:59:35;;;;;;;2.27;2.00;;;17.40;86.90;;;;;;2095019;28;20760;-67
2023/06/19 03:00:35;;;;;;;4.33;2.00;;;17.40;86.70;;;;;;2095922;28;21203;-67
2023/06/19 03:01:36;;;;;;;3.10;2.03;;;17.40;88.10;;;;;;2090485;28;20467;-67
2023/06/19 03:02:37;;;;;;;3.40;2.20;;;17.40;88.40;;;;;;2102039;28;20638;-67
2023/06/19 03:03:38;;;;;;;3.17;2.40;;;17.30;87.60;;;;;;2097572;28;20219;-67
2023/06/19 03:04:41;;;;;;;3.50;2.27;;;17.30;88.30;;;;;;2103755;28;20218;-68
2023/06/19 03:05:41;;;;;;;3.27;2.17;;;17.20;90.50;;;;;;2103849;28;20505;-67
2023/06/19 03:06:42;;;;;;;3.73;2.33;;;17.10;91.00;;;;;;2094418;28;20476;-67
2023/06/19 03:07:43;;;;;;;2.80;2.40;;;17.00;92.20;;;;;;2085482;28;20232;-67
2023/06/19 03:08:44;;;;;;;3.40;2.30;;;17.00;93.20;;;;;;2084471;28;20472;-68
2023/06/19 03:09:45;;;;;;;2.80;2.50;;;17.00;93.20;;;;;;2104103;28;20294;-67
2023/06/19 03:10:46;;;;;;;3.77;2.63;;;17.10;93.10;;;;;;2100751;28;20268;-67
2023/06/19 03:11:46;;;;;;;3.73;2.73;;;17.10;93.30;;;;;;2095821;28;20608;-67
2023/06/19 03:12:49;;;;;;;6.80;2.83;;;17.10;93.50;;;;;;2095760;28;20540;-68
2023/06/19 03:13:54;;;;;;;7.63;3.27;;;17.10;95.40;;;;;;2095430;28;20748;-67
2023/06/19 03:14:55;;;;;;;4.00;2.80;;;17.10;96.80;;;;;;2095214;28;20464;-67
2023/06/19 03:15:55;;;;;;;3.77;2.80;;;17.10;97.20;;;;;;2095161;28;21055;-67
2023/06/19 03:16:56;;;;;;;3.90;3.20;;;17.20;97.40;;;;;;2099372;28;20215;-67
2023/06/19 03:17:57;;;;;;;3.60;2.87;;;17.20;99.20;;;;;;2103648;28;20227;-68
2023/06/19 03:18:57;;;;;;;3.67;2.80;;;17.20;99.30;;;;;;2103752;28;20618;-69
2023/06/19 03:19:58;;;;;;;3.97;3.33;;;17.20;98.90;;;;;;2104039;28;20183;-68
2023/06/19 03:20:59;;;;;;;3.33;2.80;;;17.20;98.90;;;;;;2110049;28;20246;-68
2023/06/19 03:21:59;;;;;;;3.90;3.40;;;17.10;99.20;;;;;;2102008;28;20191;-68
2023/06/19 03:23:00;;;;;;;3.70;3.40;;;17.20;99.20;;;;;;2094852;28;20596;-68
2023/06/19 03:24:03;;;;;;;3.40;3.07;;;17.10;99.40;;;;;;2102590;28;20224;-68
2023/06/19 03:25:04;;;;;;;3.53;3.23;;;17.20;99.90;;;;;;2100883;28;20773;-68
2023/06/19 03:26:05;;;;;;;3.77;3.40;;;17.10;99.90;;;;;;2100982;28;20495;-68
2023/06/19 03:27:06;;;;;;;4.17;3.33;;;17.00;99.90;;;;;;2102998;28;20502;-68
2023/06/19 03:28:06;;;;;;;4.07;3.60;;;16.90;99.90;;;;;;2103560;28;20716;-67
2023/06/19 03:29:08;;;;;;;4.53;3.43;;;16.90;99.90;;;;;;2103759;28;20447;-68
2023/06/19 03:30:12;;;;;;;3.90;3.53;;;16.90;99.90;;;;;;2094834;28;20203;-68
2023/06/19 03:31:14;;;;;;;3.88;3.47;;;16.80;99.90;;;;;;2086737;28;20421;-68
2023/06/19 03:32:15;;;;;;;4.40;3.97;;;16.90;99.90;;;;;;2103617;28;20281;-68
2023/06/19 03:33:16;;;;;;;4.63;3.70;;;17.00;99.90;;;;;;2095778;28;20425;-67
2023/06/19 03:34:17;;;;;;;4.20;3.37;;;17.00;99.90;;;;;;2096531;28;21591;-67
2023/06/19 03:35:18;;;;;;;5.80;3.83;;;16.90;99.90;;;;;;2104066;28;20665;-67
2023/06/19 03:36:19;;;;;;;3.57;3.20;;;16.90;99.90;;;;;;2104467;28;20478;-68
2023/06/19 03:37:20;;;;;;;6.37;3.67;;;17.00;99.90;;;;;;2096559;28;20835;-68
2023/06/19 03:38:23;;;;;;;3.70;3.27;;;17.00;99.90;;;;;;2097038;28;20231;-67
2023/06/19 03:39:24;;;;;;;4.57;3.67;;;17.00;99.90;;;;;;2095079;28;20227;-68
2023/06/19 03:40:25;;;;;;;6.10;3.40;;;17.00;99.90;;;;;;2095359;28;20499;-68
2023/06/19 03:41:26;;;;;;;8.37;3.67;;;17.00;99.90;;;;;;2103413;28;20467;-68
2023/06/19 03:42:26;;;;;;;3.57;3.20;;;17.00;99.90;;;;;;2093933;28;20219;-67
2023/06/19 03:43:27;;;;;;;4.20;3.70;;;17.10;99.90;;;;;;2089175;28;20597;-67
2023/06/19 03:44:28;;;;;;;3.97;3.03;;;17.00;99.90;;;;;;2093523;28;20306;-67
2023/06/19 03:45:28;;;;;;;5.37;4.07;;;17.00;99.90;;;;;;2091175;28;20629;-68
2023/06/19 03:46:29;;;;;;;5.73;4.03;;;17.10;99.90;;;;;;2095813;28;20227;-67
2023/06/19 03:47:31;;;;;;;4.43;4.00;;;17.00;99.90;;;;;;2101905;28;20624;-67
2023/06/19 03:48:33;;;;;;;4.33;3.93;;;17.00;99.90;;;;;;2108210;28;20296;-67
2023/06/19 03:49:34;;;;;;;4.10;3.67;;;16.90;99.90;;;;;;2108542;28;20523;-67
2023/06/19 03:50:35;;;;;;;3.90;3.50;;;16.80;99.90;;;;;;2101497;28;20457;-67
2023/06/19 03:51:36;;;;;;;6.00;4.50;;;16.90;99.90;;;;;;2098611;28;20467;-67
2023/06/19 03:52:36;;;;;;;4.77;4.00;;;16.80;99.90;;;;;;2103572;28;20211;-67
2023/06/19 03:53:38;;;;;;;4.60;3.73;;;16.90;99.90;;;;;;2097087;28;20697;-67
2023/06/19 03:54:38;;;;;;;3.67;3.37;;;16.90;99.90;;;;;;2098909;28;20248;-67
2023/06/19 03:55:40;;;;;;;3.30;3.00;;;16.90;99.90;;;;;;2091047;28;20977;-67
2023/06/19 03:56:41;;;;;;;3.23;2.93;;;16.80;99.90;;;;;;2099864;28;20309;-67
2023/06/19 03:57:41;;;;;;;3.83;2.70;;;16.80;99.90;;;;;;2100015;28;20471;-67
2023/06/19 03:58:42;;;;;;;3.23;2.93;;;16.80;99.90;;;;;;2096599;28;20229;-67
2023/06/19 03:59:43;;;;;;;2.57;2.37;;;16.90;99.90;;;;;;2104254;28;20242;-67
2023/06/19 04:00:44;;;;;;;3.03;2.70;;;16.90;99.90;;;;;;2107904;28;20695;-67
2023/06/19 04:01:44;;;;;;;3.27;2.70;;;16.90;99.90;;;;;;2103761;28;20214;-67
2023/06/19 04:02:48;;;;;;;4.03;3.53;;;17.00;99.90;;;;;;2102306;28;20229;-67
2023/06/19 04:03:50;;;;;;;3.00;2.70;;;17.10;99.90;;;;;;2095077;28;20246;-67
2023/06/19 04:04:51;;;;;;;3.60;3.10;;;17.20;99.90;;;;;;2095722;28;20513;-68
2023/06/19 04:05:51;;;;;;;3.60;2.80;;;17.20;99.90;;;;;;2094884;28;20478;-67
2023/06/19 04:06:52;;;;;;;2.83;2.63;;;17.20;99.90;;;;;;2095410;28;20222;-66
2023/06/19 04:07:53;;;;;;;3.40;3.10;;;17.30;99.90;;;;;;2097830;28;20232;-66
2023/06/19 04:08:53;;;;;;;3.10;2.80;;;17.20;99.90;;;;;;2104004;28;20731;-66
2023/06/19 04:09:58;;;;;;;4.63;3.20;;;17.10;99.90;;;;;;2096628;28;20231;-68
2023/06/19 04:10:59;;;;;;;3.30;3.00;;;17.10;99.90;;;;;;2092707;28;20215;-67
2023/06/19 04:12:01;;;;;;;3.17;2.87;;;17.10;99.90;;;;;;2095511;28;20167;-67
2023/06/19 04:13:02;;;;;;;3.37;2.87;;;17.10;99.90;;;;;;2094890;28;20729;-66
2023/06/19 04:14:03;;;;;;;3.23;2.93;;;17.10;99.90;;;;;;2095204;28;20408;-67
2023/06/19 04:15:04;;;;;;;2.87;2.63;;;17.20;99.90;;;;;;2080035;28;20453;-67
2023/06/19 04:16:05;;;;;;;3.60;3.30;;;17.20;99.90;;;;;;2079122;28;20185;-67
2023/06/19 04:17:06;;;;;;;3.43;3.13;;;17.20;99.90;;;;;;2087883;28;20448;-67
2023/06/19 04:18:06;;;;;;;3.70;3.33;;;17.30;99.90;;;;;;2095861;28;20199;-67
2023/06/19 04:19:07;;;;;;;3.90;3.13;;;17.30;99.90;;;;;;2086444;28;20211;-67
2023/06/19 04:20:10;;;;;;;3.17;2.87;;;17.30;99.90;;;;;;2093878;28;20180;-67
2023/06/19 04:21:12;;;;;;;3.70;3.23;;;17.40;99.90;;;;;;2100187;28;20266;-67
2023/06/19 04:22:13;;;;;;;4.80;3.93;;;17.30;99.90;;;;;;2095953;28;20423;-66
2023/06/19 04:23:13;;;;;;;4.23;3.67;;;17.40;99.90;;;;;;2090443;28;20440;-66
2023/06/19 04:24:14;;;;;;;4.60;3.77;;;17.30;99.90;;;;;;2090877;28;20200;-66
2023/06/19 04:25:15;;;;;;;4.40;4.00;;;17.30;99.90;;;;;;2095350;28;20696;-66
2023/06/19 04:26:16;;;;;;;5.13;3.70;;;17.30;99.90;;;;;;2099121;28;20223;-66
2023/06/19 04:27:16;;;;;;;5.17;4.10;;;17.30;99.90;;;;;;2098843;28;20557;-66
2023/06/19 04:28:17;;;;;;;4.20;3.80;;;17.20;99.90;;;;;;2103335;28;20254;-67
2023/06/19 04:29:18;;;;;;;4.90;4.07;;;17.20;99.90;;;;;;2093602;28;20212;-66
2023/06/19 04:30:20;;;;;;;3.90;3.60;;;17.30;99.90;;;;;;2111965;28;20641;-66
2023/06/19 04:31:21;;;;;;;4.33;3.90;;;17.30;99.90;;;;;;2094663;28;20734;-66
2023/06/19 04:32:22;;;;;;;5.17;4.53;;;17.40;99.90;;;;;;2095261;28;20539;-67
2023/06/19 04:33:24;;;;;;;4.93;4.30;;;17.40;99.90;;;;;;2099928;28;20223;-66
2023/06/19 04:34:25;;;;;;;4.40;3.70;;;17.30;99.90;;;;;;2107416;28;20537;-66
2023/06/19 04:35:26;;;;;;;4.03;3.63;;;17.20;99.90;;;;;;2098807;28;20881;-66
2023/06/19 04:36:27;;;;;;;4.97;4.10;;;17.30;99.90;;;;;;2103495;28;20546;-66
2023/06/19 04:37:28;;;;;;;3.70;3.40;;;17.30;99.90;;;;;;2098883;28;20468;-66
2023/06/19 04:38:29;;;;;;;4.20;3.80;;;17.30;99.90;;;;;;2101406;28;20223;-66
2023/06/19 04:39:29;;;;;;;3.83;3.43;;;17.20;99.90;;;;;;2102229;28;20229;-66
2023/06/19 04:40:30;;;;;;;4.30;3.90;;;17.30;99.90;;;;;;2104300;28;20253;-67
2023/06/19 04:41:31;;;;;;;4.30;3.60;;;17.30;99.90;;;;;;2102995;28;20283;-66
2023/06/19 04:42:32;;;;;;;3.77;3.33;;;17.30;99.90;;;;;;2095555;28;20516;-66
2023/06/19 04:43:33;;;;;;;3.23;2.93;;;17.20;99.90;;;;;;2099170;28;20219;-66
2023/06/19 04:44:34;;;;;;;3.27;2.97;;;17.20;99.90;;;;;;2104705;28;20675;-67
2023/06/19 04:45:35;;;;;;;3.20;2.90;;;17.20;99.90;;;;;;2104726;28;20459;-67
2023/06/19 04:46:37;;;;;;;3.60;3.30;;;17.20;99.90;;;;;;2104838;28;20221;-67
2023/06/19 04:47:39;;;;;;;3.27;2.97;;;17.30;99.90;;;;;;2096247;28;20578;-66
2023/06/19 04:48:41;;;;;;;3.20;2.90;;;17.30;99.90;;;;;;2096591;28;21183;-68
2023/06/19 04:49:42;;;;;;;3.20;2.90;;;17.40;99.90;;;;;;2100637;28;21147;-67
2023/06/19 04:50:42;;;;;;;4.67;4.27;;;17.40;99.90;;;;;;2083824;28;20466;-67
2023/06/19 04:51:44;;;;;;;2.70;2.50;;;17.40;99.90;;;;;;2087782;28;20492;-67
2023/06/19 04:52:44;;;;;;;2.80;2.60;;;17.40;99.90;;;;;;2105064;28;20692;-68
2023/06/19 04:53:49;;;;;;;2.70;2.50;;;17.30;99.90;;;;;;2105396;28;20466;-68
2023/06/19 04:54:50;;;;;;;3.60;2.50;;;17.30;99.90;;;;;;2105224;28;20214;-68
2023/06/19 04:55:51;;;;;;;3.03;2.73;;;17.30;99.90;;;;;;2105017;28;20956;-68
2023/06/19 04:56:53;;;;;;;2.83;2.57;;;17.40;99.90;;;;;;2104672;28;20225;-67
2023/06/19 04:57:54;;;;;;;2.70;2.50;;;17.30;99.90;;;;;;2102384;28;20984;-67
2023/06/19 04:58:59;;;;;;;2.70;2.50;;;17.30;99.90;;;;;;2103109;28;20470;-68
2023/06/19 04:59:59;;;;;;;2.90;2.70;;;17.30;99.90;;;;;;2103660;28;20462;-68
2023/06/19 05:01:00;;;;;;;2.57;2.30;;;17.30;99.90;;;;;;2105082;28;20429;-67
2023/06/19 05:02:01;;;;;;;2.83;2.53;;;17.30;99.90;;;;;;2104891;28;20214;-68
2023/06/19 05:03:02;;;;;;;3.17;2.70;;;17.30;99.90;;;;;;2104684;28;20190;-68
2023/06/19 05:04:03;;;;;;;2.73;2.53;;;17.30;99.90;;;;;;2105180;28;20187;-68
2023/06/19 05:05:04;;;;;;;2.50;2.30;;;17.30;99.90;;;;;;2104535;28;20836;-68
2023/06/19 05:06:05;;;;;;;2.60;2.40;;;17.40;99.90;;;;;;2104547;28;20738;-68
2023/06/19 05:07:06;;;;;;;3.10;2.80;;;17.40;99.90;;;;;;2104545;28;20427;-68
2023/06/19 05:08:06;;;;;;;3.23;2.93;;;17.40;99.90;;;;;;2105373;28;20211;-68
2023/06/19 05:09:07;;;;;;;3.03;2.77;;;17.40;99.90;;;;;;2100945;28;20176;-68
2023/06/19 05:10:09;;;;;;;3.50;3.20;;;17.40;99.90;;;;;;2101175;28;20187;-67
2023/06/19 05:11:09;;;;;;;3.70;3.20;;;17.40;99.90;;;;;;2105085;28;20248;-68
2023/06/19 05:12:11;;;;;;;3.40;3.10;;;17.30;99.90;;;;;;2105197;28;20839;-68
2023/06/19 05:13:11;;;;;;;3.20;2.90;;;17.30;99.90;;;;;;2097485;28;20222;-68
2023/06/19 05:14:14;;;;;;;3.73;3.33;;;17.20;99.90;;;;;;2112489;28;20517;-67
2023/06/19 05:15:14;;;;;;;3.83;3.43;;;17.20;99.90;;;;;;2112568;28;20261;-68
2023/06/19 05:16:16;;;;;;;3.97;3.63;;;17.20;99.90;;;;;;2105372;28;20877;-68
2023/06/19 05:17:17;;;;;;;4.10;3.10;;;17.40;99.90;;;;;;2104669;28;20175;-67
2023/06/19 05:18:17;;;;;;;4.20;3.73;;;17.40;99.90;;;;;;2104605;28;20467;-68
2023/06/19 05:19:18;;;;;;;4.53;3.57;;;17.50;99.90;;;;;;2104369;28;20253;-68
2023/06/19 05:20:19;;;;;;;3.77;3.37;;;17.60;99.90;;;;;;2091874;28;20690;-67
2023/06/19 05:21:20;;;;;;;4.30;3.90;;;17.70;99.90;;;;;;2095870;28;20277;-68
2023/06/19 05:22:24;;;;;;;3.70;3.40;;;17.60;99.90;;;;;;2104468;28;20493;-68